createdAt,value
2022-08-08T00:00:59.591Z,2.30
2022-08-08T00:03:31.714Z,1.70
2022-08-08T00:06:33.892Z,3.00
2022-08-08T00:09:09.033Z,3.30
2022-08-08T00:12:09.586Z,2.90
2022-08-08T00:14:59.153Z,2.60
2022-08-08T00:17:58.743Z,2.50
2022-08-08T00:20:28.863Z,1.90
2022-08-08T00:23:02.373Z,2.80
2022-08-08T00:25:44.977Z,3.60
2022-08-08T00:28:35.529Z,1.40
2022-08-08T00:32:20.712Z,3.80
2022-08-08T00:34:50.431Z,2.00
2022-08-08T00:37:46.926Z,2.10
2022-08-08T00:41:11.467Z,2.30
2022-08-08T00:43:58.909Z,2.40
2022-08-08T00:46:58.198Z,3.40
2022-08-08T00:49:58.578Z,2.20
2022-08-08T00:53:20.834Z,3.80
2022-08-08T00:56:02.443Z,2.90
2022-08-08T00:59:18.705Z,3.50
2022-08-08T01:03:55.662Z,2.50
2022-08-08T01:08:52.747Z,5.30
2022-08-08T01:11:34.303Z,3.20
2022-08-08T01:14:54.670Z,2.40
2022-08-08T01:17:19.981Z,2.60
2022-08-08T01:20:28.258Z,3.60
2022-08-08T01:24:06.793Z,4.10
2022-08-08T01:26:28.420Z,2.40
2022-08-08T01:29:05.621Z,3.60
2022-08-08T01:34:42.129Z,3.70
2022-08-08T01:37:57.848Z,3.00
2022-08-08T01:40:40.160Z,3.30
2022-08-08T01:43:34.679Z,11.10
2022-08-08T01:46:32.253Z,3.60
2022-08-08T01:49:37.784Z,2.70
2022-08-08T01:52:33.631Z,5.80
2022-08-08T01:56:28.771Z,3.50
2022-08-08T01:58:47.215Z,3.30
2022-08-08T02:02:14.014Z,3.00
2022-08-08T02:05:04.711Z,5.90
2022-08-08T02:08:01.961Z,3.50
2022-08-08T02:11:05.724Z,5.30
2022-08-08T02:13:54.296Z,3.90
2022-08-08T02:16:35.113Z,3.50
2022-08-08T02:19:41.959Z,3.60
2022-08-08T02:22:28.446Z,8.70
2022-08-08T02:25:11.725Z,3.60
2022-08-08T02:27:57.817Z,4.40
2022-08-08T02:30:50.120Z,6.00
2022-08-08T02:34:07.886Z,4.50
2022-08-08T02:37:09.991Z,2.60
2022-08-08T02:40:06.692Z,3.70
2022-08-08T02:44:38.862Z,3.50
2022-08-08T02:46:23.094Z,5.20
2022-08-08T02:49:08.954Z,4.20
2022-08-08T02:52:34.622Z,4.20
2022-08-08T02:55:36.482Z,3.20
2022-08-08T02:58:30.356Z,4.10
2022-08-08T03:01:39.688Z,5.70
2022-08-08T03:05:08.717Z,4.30
2022-08-08T03:08:17.027Z,3.90
2022-08-08T03:11:13.819Z,7.60
2022-08-08T03:15:59.703Z,4.10
2022-08-08T03:17:25.614Z,6.40
2022-08-08T03:20:08.055Z,3.50
2022-08-08T03:22:45.275Z,4.90
2022-08-08T03:25:18.968Z,6.70
2022-08-08T03:28:05.627Z,5.90
2022-08-08T03:30:35.519Z,4.50
2022-08-08T03:33:58.039Z,6.60
2022-08-08T03:36:10.309Z,5.90
2022-08-08T03:38:53.507Z,3.40
2022-08-08T03:42:27.863Z,4.50
2022-08-08T03:44:25.760Z,7.80
2022-08-08T03:46:54.572Z,6.00
2022-08-08T03:49:57.388Z,4.90
2022-08-08T03:52:15.307Z,4.10
2022-08-08T03:55:02.646Z,5.90
2022-08-08T03:58:31.499Z,6.20
2022-08-08T04:00:30.714Z,8.00
2022-08-08T04:03:04.474Z,13.80
2022-08-08T04:05:47.217Z,28.60
2022-08-08T04:08:33.645Z,8.10
2022-08-08T04:11:11.182Z,10.80
2022-08-08T04:14:03.943Z,12.80
2022-08-08T04:16:38.348Z,12.10
2022-08-08T04:19:23.682Z,6.20
2022-08-08T04:21:57.026Z,8.00
2022-08-08T04:24:30.717Z,4.40
2022-08-08T04:27:01.033Z,6.50
2022-08-08T04:29:37.124Z,7.70
2022-08-08T04:32:10.654Z,6.10
2022-08-08T04:34:55.939Z,11.40
2022-08-08T04:37:32.387Z,6.60
2022-08-08T04:40:07.779Z,8.90
2022-08-08T04:42:46.853Z,8.90
2022-08-08T04:45:25.982Z,5.60
2022-08-08T04:47:58.583Z,9.70
2022-08-08T04:50:34.290Z,10.80
2022-08-08T04:53:14.304Z,4.50
2022-08-08T04:55:55.971Z,31.80
2022-08-08T04:58:25.430Z,5.50
2022-08-08T05:00:54.419Z,8.80
2022-08-08T05:04:09.876Z,7.90
2022-08-08T05:06:13.383Z,4.30
2022-08-08T05:08:51.619Z,5.60
2022-08-08T05:11:23.881Z,6.90
2022-08-08T05:13:55.260Z,5.20
2022-08-08T05:16:51.255Z,5.20
2022-08-08T05:20:10.794Z,3.40
2022-08-08T05:22:09.821Z,5.30
2022-08-08T05:24:41.976Z,3.40
2022-08-08T05:27:17.221Z,3.30
2022-08-08T05:29:45.855Z,8.40
2022-08-08T05:32:24.511Z,4.70
2022-08-08T05:34:59.246Z,3.80
2022-08-08T05:37:52.319Z,3.70
2022-08-08T05:40:28.019Z,3.50
2022-08-08T05:43:17.290Z,2.60
2022-08-08T05:46:03.682Z,2.60
2022-08-08T05:48:34.703Z,3.50
2022-08-08T05:51:15.329Z,2.70
2022-08-08T05:54:24.291Z,4.10
2022-08-08T05:56:42.724Z,2.20
2022-08-08T06:00:00.957Z,3.50
2022-08-08T06:02:48.077Z,2.30
2022-08-08T06:05:33.242Z,4.00
2022-08-08T06:08:09.860Z,3.70
2022-08-08T06:10:49.572Z,2.60
2022-08-08T06:13:22.736Z,3.60
2022-08-08T06:15:55.000Z,3.60
2022-08-08T06:18:43.748Z,2.20
2022-08-08T06:21:28.130Z,2.50
2022-08-08T06:24:03.442Z,5.70
2022-08-08T06:26:50.284Z,4.20
2022-08-08T06:29:59.406Z,2.80
2022-08-08T06:32:33.538Z,3.80
2022-08-08T06:36:04.598Z,3.60
2022-08-08T06:38:09.287Z,4.30
2022-08-08T06:40:53.818Z,2.40
2022-08-08T06:43:33.675Z,2.90
2022-08-08T06:46:08.986Z,3.00
2022-08-08T06:48:42.309Z,2.50
2022-08-08T06:51:11.962Z,1.80
2022-08-08T06:53:50.806Z,2.10
2022-08-08T06:56:26.319Z,2.10
2022-08-08T06:58:54.609Z,1.30
2022-08-08T07:02:27.379Z,0.80
2022-08-08T07:04:41.470Z,1.80
2022-08-08T07:07:18.700Z,1.00
2022-08-08T07:10:02.764Z,0.90
2022-08-08T07:12:43.026Z,0.70
2022-08-08T07:15:23.259Z,1.10
2022-08-08T07:18:35.593Z,0.70
2022-08-08T07:21:01.869Z,1.10
2022-08-08T07:24:01.044Z,1.40
2022-08-08T07:26:35.252Z,2.10
2022-08-08T07:29:08.257Z,0.40
2022-08-08T07:31:40.722Z,0.60
2022-08-08T07:34:11.350Z,0.50
2022-08-08T07:36:55.615Z,0.50
2022-08-08T07:39:29.589Z,0.50
2022-08-08T07:42:05.504Z,0.80
2022-08-08T07:44:40.315Z,0.20
2022-08-08T07:47:09.899Z,0.30
2022-08-08T07:49:40.095Z,0.40
2022-08-08T07:52:13.355Z,0.10
2022-08-08T07:57:36.086Z,1.10
2022-08-08T08:00:16.293Z,0.20
2022-08-08T08:03:20.471Z,0.20
2022-08-08T08:05:53.217Z,0.30
2022-08-08T08:08:36.559Z,0.10
2022-08-08T08:11:04.674Z,0.20
2022-08-08T08:13:42.918Z,0.20
2022-08-08T08:16:32.221Z,0.20
2022-08-08T08:19:10.097Z,0.30
2022-08-08T08:24:39.840Z,0.10
2022-08-08T08:27:12.321Z,0.50
2022-08-08T08:29:43.103Z,1.20
2022-08-08T08:32:12.344Z,0.40
2022-08-08T08:34:53.327Z,0.00
2022-08-08T08:37:24.010Z,0.10
2022-08-08T08:40:01.300Z,0.20
2022-08-08T08:42:36.549Z,0.10
2022-08-08T08:45:21.220Z,0.00
2022-08-08T08:47:54.127Z,0.00
2022-08-08T08:50:32.903Z,0.10
2022-08-08T08:53:27.415Z,0.00
2022-08-08T08:56:01.952Z,0.00
2022-08-08T08:58:41.534Z,0.00
2022-08-08T09:01:13.474Z,0.00
2022-08-08T09:03:50.961Z,0.00
2022-08-08T09:06:33.414Z,0.00
2022-08-08T09:09:18.770Z,0.00
2022-08-08T09:12:02.122Z,0.00
2022-08-08T09:14:35.169Z,0.00
2022-08-08T09:17:11.625Z,0.10
2022-08-08T09:21:59.250Z,0.10
2022-08-08T09:22:31.318Z,0.10
2022-08-08T09:24:59.699Z,0.40
2022-08-08T09:27:55.811Z,0.40
2022-08-08T09:30:17.400Z,0.60
2022-08-08T09:33:54.323Z,0.90
2022-08-08T09:35:49.130Z,1.40
2022-08-08T09:38:52.902Z,2.20
2022-08-08T09:42:14.661Z,4.00
2022-08-08T09:44:52.785Z,7.30
2022-08-08T09:47:25.827Z,9.00
2022-08-08T09:50:03.345Z,8.50
2022-08-08T09:52:55.792Z,10.00
2022-08-08T09:56:03.748Z,14.80
2022-08-08T09:58:27.664Z,20.70
2022-08-08T10:01:14.241Z,18.40
2022-08-08T10:04:02.385Z,12.20
2022-08-08T10:09:03.990Z,4.00
2022-08-08T10:12:27.930Z,2.40
2022-08-08T10:14:28.469Z,1.60
2022-08-08T10:17:56.443Z,1.30
2022-08-08T10:20:00.065Z,0.90
2022-08-08T10:22:29.919Z,0.80
2022-08-08T10:25:15.656Z,1.20
2022-08-08T10:30:16.732Z,1.10
2022-08-08T10:33:01.080Z,1.10
2022-08-08T10:36:09.041Z,1.00
2022-08-08T10:38:20.570Z,0.80
2022-08-08T10:40:53.190Z,0.90
2022-08-08T10:43:22.978Z,0.70
2022-08-08T10:45:56.619Z,0.60
2022-08-08T10:48:38.913Z,0.40
2022-08-08T10:51:31.168Z,1.00
2022-08-08T10:54:02.107Z,1.00
2022-08-08T10:56:35.679Z,1.40
2022-08-08T10:59:12.316Z,1.70
2022-08-08T11:01:54.338Z,2.20
2022-08-08T11:04:29.428Z,2.70
2022-08-08T11:07:07.171Z,2.70
2022-08-08T11:09:35.257Z,2.70
2022-08-08T11:12:12.717Z,2.10
2022-08-08T11:14:59.795Z,2.00
2022-08-08T11:17:58.054Z,1.50
2022-08-08T11:20:25.027Z,1.10
2022-08-08T11:23:00.603Z,0.80
2022-08-08T11:25:43.654Z,0.60
2022-08-08T11:28:25.568Z,0.50
2022-08-08T11:30:57.927Z,0.40
2022-08-08T11:33:52.471Z,0.40
2022-08-08T11:36:17.559Z,0.30
2022-08-08T11:38:55.297Z,0.30
2022-08-08T11:41:24.723Z,0.30
2022-08-08T11:43:57.961Z,0.20
2022-08-08T11:46:28.103Z,0.10
2022-08-08T11:48:59.542Z,0.10
2022-08-08T11:51:38.818Z,0.10
2022-08-08T11:54:31.504Z,0.10
2022-08-08T11:57:35.029Z,0.10
2022-08-08T12:00:09.674Z,0.00
2022-08-08T12:02:47.646Z,0.10
2022-08-08T12:05:16.320Z,0.00
2022-08-08T12:07:54.180Z,0.00
2022-08-08T12:10:26.102Z,0.00
2022-08-08T12:13:03.373Z,0.00
2022-08-08T12:15:42.368Z,0.00
2022-08-08T12:18:20.967Z,0.00
2022-08-08T12:20:53.252Z,0.00
2022-08-08T12:23:43.711Z,0.00
2022-08-08T12:26:28.258Z,0.00
2022-08-08T12:29:21.303Z,0.00
2022-08-08T12:32:13.384Z,0.00
2022-08-08T12:35:01.227Z,0.00
2022-08-08T12:37:34.928Z,0.00
2022-08-08T12:40:23.579Z,0.00
2022-08-08T12:42:52.860Z,0.00
2022-08-08T12:45:58.382Z,0.00
2022-08-08T12:48:36.288Z,0.00
2022-08-08T12:51:10.761Z,0.00
2022-08-08T12:53:58.794Z,0.00
2022-08-08T12:56:34.963Z,0.00
2022-08-08T12:59:18.225Z,0.00
2022-08-08T13:01:58.537Z,0.00
2022-08-08T13:04:33.325Z,0.00
2022-08-08T13:07:07.006Z,0.00
2022-08-08T13:09:43.212Z,0.00
2022-08-08T13:12:35.165Z,0.00
2022-08-08T13:15:09.244Z,0.00
2022-08-08T13:18:08.449Z,0.00
2022-08-08T13:20:27.666Z,0.00
2022-08-08T13:23:30.669Z,0.00
2022-08-08T13:25:50.390Z,0.00
2022-08-08T13:28:32.244Z,0.00
2022-08-08T13:31:04.672Z,0.00
2022-08-08T13:33:41.869Z,0.00
2022-08-08T13:36:11.055Z,0.00
2022-08-08T13:38:39.680Z,0.00
2022-08-08T13:41:16.085Z,0.00
2022-08-08T13:43:49.605Z,0.00
2022-08-08T13:46:26.595Z,0.00
2022-08-08T13:49:12.211Z,0.00
2022-08-08T13:51:57.113Z,0.00
2022-08-08T13:54:29.572Z,0.00
2022-08-08T13:57:11.329Z,0.00
2022-08-08T13:59:44.300Z,0.00
2022-08-08T14:02:31.211Z,0.00
2022-08-08T14:05:09.173Z,0.00
2022-08-08T14:07:52.285Z,0.00
2022-08-08T14:10:33.156Z,0.00
2022-08-08T14:13:20.955Z,0.00
2022-08-08T14:16:07.874Z,0.00
2022-08-08T14:18:58.847Z,0.00
2022-08-08T14:21:49.089Z,0.00
2022-08-08T14:24:32.825Z,0.00
2022-08-08T14:27:01.988Z,0.00
2022-08-08T14:29:39.344Z,0.00
2022-08-08T14:32:14.161Z,0.00
2022-08-08T14:34:50.146Z,0.00
2022-08-08T14:37:19.755Z,0.00
2022-08-08T14:40:05.291Z,0.00
2022-08-08T14:42:35.979Z,0.00
2022-08-08T14:45:10.293Z,0.00
2022-08-08T14:47:46.794Z,0.00
2022-08-08T14:50:38.268Z,0.00
2022-08-08T14:53:13.486Z,0.00
2022-08-08T14:55:43.076Z,0.00
2022-08-08T14:58:16.926Z,0.00
2022-08-08T15:00:49.382Z,0.00
2022-08-08T15:03:18.403Z,0.00
2022-08-08T15:05:54.396Z,0.00
2022-08-08T15:08:34.778Z,0.00
2022-08-08T15:11:10.327Z,0.00
2022-08-08T15:14:00.814Z,0.00
2022-08-08T15:16:28.661Z,0.00
2022-08-08T15:18:56.586Z,0.00
2022-08-08T15:21:30.081Z,0.00
2022-08-08T15:23:58.549Z,0.10
2022-08-08T15:28:57.596Z,0.00
2022-08-08T15:31:55.711Z,0.00
2022-08-08T15:34:18.390Z,0.00
2022-08-08T15:36:59.627Z,0.00
2022-08-08T15:39:37.491Z,0.00
2022-08-08T15:42:10.269Z,0.00
2022-08-08T15:44:42.190Z,0.00
2022-08-08T15:47:16.156Z,0.00
2022-08-08T15:49:48.940Z,0.00
2022-08-08T15:52:20.637Z,0.00
2022-08-08T15:54:51.845Z,0.00
2022-08-08T15:57:21.318Z,0.00
2022-08-08T16:00:25.648Z,0.00
2022-08-08T16:02:43.723Z,0.00
2022-08-08T16:05:13.814Z,0.00
2022-08-08T16:07:53.150Z,0.00
2022-08-08T16:13:03.266Z,0.00
2022-08-08T16:13:32.276Z,0.00
2022-08-08T16:16:16.523Z,0.00
2022-08-08T16:18:56.322Z,0.00
2022-08-08T16:21:27.833Z,0.00
2022-08-08T16:23:58.582Z,0.00
2022-08-08T16:26:34.516Z,0.00
2022-08-08T16:29:08.646Z,0.00
2022-08-08T16:31:42.054Z,0.00
2022-08-08T16:34:19.612Z,0.00
2022-08-08T16:36:50.379Z,0.00
2022-08-08T16:39:49.130Z,0.00
2022-08-08T16:42:18.096Z,0.00
2022-08-08T16:44:54.382Z,0.00
2022-08-08T16:47:40.206Z,0.00
2022-08-08T16:50:15.493Z,0.00
2022-08-08T16:55:03.838Z,0.00
2022-08-08T16:55:53.852Z,0.00
2022-08-08T16:58:26.396Z,0.00
2022-08-08T17:00:58.204Z,0.00
2022-08-08T17:04:00.858Z,0.10
2022-08-08T17:06:36.104Z,0.00
2022-08-08T17:09:02.863Z,0.00
2022-08-08T17:11:38.894Z,0.00
2022-08-08T17:14:18.865Z,0.40
2022-08-08T17:16:57.811Z,0.00
2022-08-08T17:19:28.986Z,0.10
2022-08-08T17:22:01.269Z,0.20
2022-08-08T17:24:30.638Z,0.10
2022-08-08T17:29:33.395Z,0.00
2022-08-08T17:32:04.356Z,0.00
2022-08-08T17:34:48.042Z,0.00
2022-08-08T17:37:24.937Z,0.30
2022-08-08T17:40:10.443Z,0.00
2022-08-08T17:42:41.285Z,0.00
2022-08-08T17:45:23.508Z,0.30
2022-08-08T17:47:53.974Z,0.00
2022-08-08T17:50:23.752Z,0.20
2022-08-08T17:52:56.425Z,0.00
2022-08-08T17:56:07.047Z,0.00
2022-08-08T17:58:15.212Z,0.00
2022-08-08T18:00:42.867Z,0.00
2022-08-08T18:03:15.482Z,0.00
2022-08-08T18:05:49.799Z,0.00
2022-08-08T18:08:38.312Z,0.00
2022-08-08T18:11:16.291Z,0.00
2022-08-08T18:13:46.130Z,0.00
2022-08-08T18:16:16.968Z,0.00
2022-08-08T18:18:53.124Z,0.00
2022-08-08T18:21:59.702Z,0.00
2022-08-08T18:24:18.981Z,0.00
2022-08-08T18:26:53.781Z,0.00
2022-08-08T18:29:33.537Z,0.00
2022-08-08T18:32:07.800Z,0.00
2022-08-08T18:34:36.742Z,0.00
2022-08-08T18:37:07.958Z,0.00
2022-08-08T18:39:41.917Z,0.00
2022-08-08T18:42:15.940Z,0.00
2022-08-08T18:44:55.048Z,0.10
2022-08-08T18:47:27.991Z,0.00
2022-08-08T18:50:00.247Z,0.00
2022-08-08T18:52:29.943Z,0.00
2022-08-08T18:54:59.314Z,0.20
2022-08-08T18:57:31.972Z,0.00
2022-08-08T19:00:10.641Z,0.00
2022-08-08T19:02:48.578Z,0.00
2022-08-08T19:05:32.104Z,0.00
2022-08-08T19:08:29.704Z,0.00
2022-08-08T19:10:59.251Z,0.00
2022-08-08T19:13:38.488Z,0.00
2022-08-08T19:18:54.798Z,0.00
2022-08-08T19:21:32.801Z,0.00
2022-08-08T19:24:05.246Z,0.00
2022-08-08T19:26:35.460Z,0.00
2022-08-08T19:29:06.977Z,0.00
2022-08-08T19:34:30.156Z,0.00
2022-08-08T19:36:55.303Z,0.00
2022-08-08T19:39:23.657Z,0.00
2022-08-08T19:41:51.977Z,0.00
2022-08-08T19:44:26.723Z,0.10
2022-08-08T19:47:04.330Z,0.00
2022-08-08T19:49:37.754Z,0.00
2022-08-08T19:52:07.382Z,0.00
2022-08-08T19:54:38.236Z,0.00
2022-08-08T19:57:07.510Z,0.10
2022-08-08T19:59:35.737Z,0.00
2022-08-08T20:02:05.130Z,0.20
2022-08-08T20:04:33.797Z,0.00
2022-08-08T20:08:27.201Z,0.00
2022-08-08T20:09:55.878Z,0.00
2022-08-08T20:12:32.321Z,0.00
2022-08-08T20:15:14.692Z,0.00
2022-08-08T20:17:47.276Z,0.10
2022-08-08T20:20:19.007Z,0.00
2022-08-08T20:22:54.287Z,0.00
2022-08-08T20:25:24.623Z,0.00
2022-08-08T20:27:54.937Z,0.00
2022-08-08T20:30:53.288Z,0.00
2022-08-08T20:35:58.654Z,0.00
2022-08-08T20:38:32.744Z,0.10
2022-08-08T20:41:05.804Z,0.00
2022-08-08T20:43:49.450Z,0.00
2022-08-08T20:46:20.934Z,0.00
2022-08-08T20:48:51.363Z,0.00
2022-08-08T20:51:20.976Z,0.00
2022-08-08T20:53:59.826Z,0.00
2022-08-08T20:56:35.379Z,0.20
2022-08-08T20:59:06.347Z,0.00
2022-08-08T21:02:06.574Z,0.00
2022-08-08T21:04:27.621Z,0.00
2022-08-08T21:06:56.425Z,0.00
2022-08-08T21:09:31.422Z,0.00
2022-08-08T21:12:03.403Z,0.00
2022-08-08T21:14:34.556Z,0.10
2022-08-08T21:17:06.114Z,0.10
2022-08-08T21:19:45.669Z,0.50
2022-08-08T21:22:16.006Z,0.30
2022-08-08T21:24:53.030Z,0.10
2022-08-08T21:28:05.325Z,0.20
2022-08-08T21:30:19.315Z,0.30
2022-08-08T21:32:52.313Z,0.30
2022-08-08T21:36:18.257Z,0.20
2022-08-08T21:40:55.542Z,0.40
2022-08-08T21:43:34.341Z,0.30
2022-08-08T21:48:04.027Z,0.30
2022-08-08T21:48:53.947Z,0.20
2022-08-08T21:54:31.173Z,0.10
2022-08-08T21:54:31.738Z,0.20
2022-08-08T21:57:01.582Z,0.20
2022-08-08T22:00:03.229Z,0.20
2022-08-08T22:02:22.916Z,0.10
2022-08-08T22:04:52.963Z,0.10
2022-08-08T22:07:26.180Z,0.10
2022-08-08T22:10:18.355Z,0.20
2022-08-08T22:13:17.658Z,0.10
2022-08-08T22:15:58.741Z,0.20
2022-08-08T22:18:30.534Z,0.30
2022-08-08T22:21:01.575Z,0.00
2022-08-08T22:23:50.692Z,0.10
2022-08-08T22:29:15.002Z,0.30
2022-08-08T22:32:01.477Z,0.00
2022-08-08T22:34:32.177Z,0.00
2022-08-08T22:37:01.130Z,0.10
2022-08-08T22:39:39.344Z,0.70
2022-08-08T22:42:14.310Z,0.10
2022-08-08T22:44:54.958Z,0.00
2022-08-08T22:47:22.702Z,0.00
2022-08-08T22:49:54.204Z,0.00
2022-08-08T22:52:33.673Z,0.10
2022-08-08T22:55:05.834Z,0.30
2022-08-08T22:57:43.998Z,0.10
2022-08-08T23:00:13.454Z,0.00
2022-08-08T23:05:14.374Z,0.10
2022-08-08T23:07:49.323Z,0.10
2022-08-08T23:10:25.215Z,0.20
2022-08-08T23:12:55.094Z,0.10
2022-08-08T23:16:38.378Z,0.00
2022-08-08T23:18:12.468Z,0.00
2022-08-08T23:20:43.462Z,0.20
2022-08-08T23:23:12.484Z,0.20
2022-08-08T23:25:48.162Z,0.20
2022-08-08T23:28:18.164Z,0.30
2022-08-08T23:30:47.583Z,0.10
2022-08-08T23:33:21.102Z,0.10
2022-08-08T23:36:08.311Z,0.20
2022-08-08T23:38:43.969Z,0.10
2022-08-08T23:41:23.259Z,0.30
2022-08-08T23:43:56.400Z,0.10
2022-08-08T23:49:08.766Z,0.40
2022-08-08T23:49:14.889Z,0.20
2022-08-08T23:52:06.213Z,0.30
2022-08-08T23:54:42.874Z,0.20
2022-08-08T23:57:27.195Z,0.10
